sensor_id;sensor_type;location;lat;lon;timestamp;temperature;humidity
4374;DHT22;2201;51.100;6.814;2023-05-07T00:01:51;16.20;98.20
4374;DHT22;2201;51.100;6.814;2023-05-07T00:04:18;16.20;98.20
4374;DHT22;2201;51.100;6.814;2023-05-07T00:06:46;16.20;98.20
4374;DHT22;2201;51.100;6.814;2023-05-07T00:09:12;16.20;98.20
4374;DHT22;2201;51.100;6.814;2023-05-07T00:11:39;16.20;98.20
4374;DHT22;2201;51.100;6.814;2023-05-07T00:14:07;16.10;98.20
4374;DHT22;2201;51.100;6.814;2023-05-07T00:16:34;16.10;98.20
4374;DHT22;2201;51.100;6.814;2023-05-07T00:19:01;16.00;98.20
4374;DHT22;2201;51.100;6.814;2023-05-07T00:21:28;16.00;98.20
4374;DHT22;2201;51.100;6.814;2023-05-07T00:23:56;15.90;98.20
4374;DHT22;2201;51.100;6.814;2023-05-07T00:26:22;15.90;98.20
4374;DHT22;2201;51.100;6.814;2023-05-07T00:28:49;15.90;98.20
4374;DHT22;2201;51.100;6.814;2023-05-07T00:31:17;15.90;98.20
4374;DHT22;2201;51.100;6.814;2023-05-07T00:33:44;15.90;98.20
4374;DHT22;2201;51.100;6.814;2023-05-07T00:36:10;15.90;98.20
4374;DHT22;2201;51.100;6.814;2023-05-07T00:38:37;15.90;98.20
4374;DHT22;2201;51.100;6.814;2023-05-07T00:41:05;15.90;98.20
4374;DHT22;2201;51.100;6.814;2023-05-07T00:43:32;15.90;98.20
4374;DHT22;2201;51.100;6.814;2023-05-07T00:45:58;15.90;98.20
4374;DHT22;2201;51.100;6.814;2023-05-07T00:48:27;15.90;98.20
4374;DHT22;2201;51.100;6.814;2023-05-07T00:50:54;15.90;98.20
4374;DHT22;2201;51.100;6.814;2023-05-07T00:53:21;15.90;98.20
4374;DHT22;2201;51.100;6.814;2023-05-07T00:55:48;15.90;98.20
4374;DHT22;2201;51.100;6.814;2023-05-07T00:58:16;15.90;98.20
4374;DHT22;2201;51.100;6.814;2023-05-07T01:00:43;15.90;98.20
4374;DHT22;2201;51.100;6.814;2023-05-07T01:03:09;15.90;98.20
4374;DHT22;2201;51.100;6.814;2023-05-07T01:05:38;15.90;98.20
4374;DHT22;2201;51.100;6.814;2023-05-07T01:08:05;15.90;98.20
4374;DHT22;2201;51.100;6.814;2023-05-07T01:10:32;15.90;98.20
4374;DHT22;2201;51.100;6.814;2023-05-07T01:12:59;15.80;98.20
4374;DHT22;2201;51.100;6.814;2023-05-07T01:15:26;15.80;98.20
4374;DHT22;2201;51.100;6.814;2023-05-07T01:17:53;15.80;98.20
4374;DHT22;2201;51.100;6.814;2023-05-07T01:20:20;15.70;98.20
4374;DHT22;2201;51.100;6.814;2023-05-07T01:22:49;15.70;98.20
4374;DHT22;2201;51.100;6.814;2023-05-07T01:25:16;15.70;98.20
4374;DHT22;2201;51.100;6.814;2023-05-07T01:27:43;15.70;98.20
4374;DHT22;2201;51.100;6.814;2023-05-07T01:30:10;15.70;98.20
4374;DHT22;2201;51.100;6.814;2023-05-07T01:32:40;15.70;98.20
4374;DHT22;2201;51.100;6.814;2023-05-07T01:35:11;15.70;98.20
4374;DHT22;2201;51.100;6.814;2023-05-07T01:37:38;15.70;98.20
4374;DHT22;2201;51.100;6.814;2023-05-07T01:40:08;15.70;98.20
4374;DHT22;2201;51.100;6.814;2023-05-07T01:42:35;15.60;98.20
4374;DHT22;2201;51.100;6.814;2023-05-07T01:45:03;15.60;98.20
4374;DHT22;2201;51.100;6.814;2023-05-07T01:47:30;15.60;98.20
4374;DHT22;2201;51.100;6.814;2023-05-07T01:49:57;15.60;98.20
4374;DHT22;2201;51.100;6.814;2023-05-07T01:52:24;15.60;98.20
4374;DHT22;2201;51.100;6.814;2023-05-07T01:54:51;15.60;98.20
4374;DHT22;2201;51.100;6.814;2023-05-07T01:57:19;15.60;98.20
4374;DHT22;2201;51.100;6.814;2023-05-07T01:59:46;15.60;98.20
4374;DHT22;2201;51.100;6.814;2023-05-07T02:02:13;15.60;98.20
4374;DHT22;2201;51.100;6.814;2023-05-07T02:04:40;15.60;98.20
4374;DHT22;2201;51.100;6.814;2023-05-07T02:07:06;15.50;98.20
4374;DHT22;2201;51.100;6.814;2023-05-07T02:09:33;15.50;98.20
4374;DHT22;2201;51.100;6.814;2023-05-07T02:12:00;15.50;98.20
4374;DHT22;2201;51.100;6.814;2023-05-07T02:14:28;15.50;98.20
4374;DHT22;2201;51.100;6.814;2023-05-07T02:16:55;15.50;98.20
4374;DHT22;2201;51.100;6.814;2023-05-07T02:19:22;15.40;98.20
4374;DHT22;2201;51.100;6.814;2023-05-07T02:21:49;15.40;98.20
4374;DHT22;2201;51.100;6.814;2023-05-07T02:24:16;15.40;98.20
4374;DHT22;2201;51.100;6.814;2023-05-07T02:26:43;15.40;98.20
4374;DHT22;2201;51.100;6.814;2023-05-07T02:29:10;15.30;98.20
4374;DHT22;2201;51.100;6.814;2023-05-07T02:31:38;15.30;98.20
4374;DHT22;2201;51.100;6.814;2023-05-07T02:34:05;15.20;98.20
4374;DHT22;2201;51.100;6.814;2023-05-07T02:36:32;15.20;98.20
4374;DHT22;2201;51.100;6.814;2023-05-07T02:38:59;15.10;98.20
4374;DHT22;2201;51.100;6.814;2023-05-07T02:41:26;15.10;98.20
4374;DHT22;2201;51.100;6.814;2023-05-07T02:43:53;15.00;98.20
4374;DHT22;2201;51.100;6.814;2023-05-07T02:46:20;15.00;98.20
4374;DHT22;2201;51.100;6.814;2023-05-07T02:48:48;15.00;98.20
4374;DHT22;2201;51.100;6.814;2023-05-07T02:51:16;14.90;98.20
4374;DHT22;2201;51.100;6.814;2023-05-07T02:53:43;14.90;98.20
4374;DHT22;2201;51.100;6.814;2023-05-07T02:56:09;14.90;98.20
4374;DHT22;2201;51.100;6.814;2023-05-07T02:58:36;14.80;98.20
4374;DHT22;2201;51.100;6.814;2023-05-07T03:01:04;14.80;98.20
4374;DHT22;2201;51.100;6.814;2023-05-07T03:03:31;14.80;98.20
4374;DHT22;2201;51.100;6.814;2023-05-07T03:05:59;14.80;98.20
4374;DHT22;2201;51.100;6.814;2023-05-07T03:08:27;14.80;98.20
4374;DHT22;2201;51.100;6.814;2023-05-07T03:10:53;14.70;98.20
4374;DHT22;2201;51.100;6.814;2023-05-07T03:13:20;14.70;98.20
4374;DHT22;2201;51.100;6.814;2023-05-07T03:15:47;14.70;98.20
4374;DHT22;2201;51.100;6.814;2023-05-07T03:18:14;14.70;98.20
4374;DHT22;2201;51.100;6.814;2023-05-07T03:20:40;14.70;98.20
4374;DHT22;2201;51.100;6.814;2023-05-07T03:23:09;14.70;98.20
4374;DHT22;2201;51.100;6.814;2023-05-07T03:25:35;14.70;98.20
4374;DHT22;2201;51.100;6.814;2023-05-07T03:28:02;14.70;98.20
4374;DHT22;2201;51.100;6.814;2023-05-07T03:30:29;14.70;98.20
4374;DHT22;2201;51.100;6.814;2023-05-07T03:32:56;14.60;98.20
4374;DHT22;2201;51.100;6.814;2023-05-07T03:35:23;14.60;98.20
4374;DHT22;2201;51.100;6.814;2023-05-07T03:37:50;14.60;98.20
4374;DHT22;2201;51.100;6.814;2023-05-07T03:40:18;14.60;98.20
4374;DHT22;2201;51.100;6.814;2023-05-07T03:42:45;14.60;98.20
4374;DHT22;2201;51.100;6.814;2023-05-07T03:45:12;14.60;98.20
4374;DHT22;2201;51.100;6.814;2023-05-07T03:47:39;14.60;98.20
4374;DHT22;2201;51.100;6.814;2023-05-07T03:50:06;14.60;98.20
4374;DHT22;2201;51.100;6.814;2023-05-07T03:52:33;14.70;98.20
4374;DHT22;2201;51.100;6.814;2023-05-07T03:55:00;14.70;98.20
4374;DHT22;2201;51.100;6.814;2023-05-07T03:57:29;14.70;98.20
4374;DHT22;2201;51.100;6.814;2023-05-07T03:59:55;14.70;98.20
4374;DHT22;2201;51.100;6.814;2023-05-07T04:02:23;14.70;98.20
4374;DHT22;2201;51.100;6.814;2023-05-07T04:04:51;14.70;98.20
4374;DHT22;2201;51.100;6.814;2023-05-07T04:07:18;14.70;98.20
4374;DHT22;2201;51.100;6.814;2023-05-07T04:09:45;14.70;98.20
4374;DHT22;2201;51.100;6.814;2023-05-07T04:12:12;14.70;98.20
4374;DHT22;2201;51.100;6.814;2023-05-07T04:14:40;14.70;98.20
4374;DHT22;2201;51.100;6.814;2023-05-07T04:17:07;14.70;98.20
4374;DHT22;2201;51.100;6.814;2023-05-07T04:19:35;14.70;98.20
4374;DHT22;2201;51.100;6.814;2023-05-07T04:22:02;14.70;98.20
4374;DHT22;2201;51.100;6.814;2023-05-07T04:24:31;14.70;98.20
4374;DHT22;2201;51.100;6.814;2023-05-07T04:26:58;14.80;98.20
4374;DHT22;2201;51.100;6.814;2023-05-07T04:29:25;14.80;98.20
4374;DHT22;2201;51.100;6.814;2023-05-07T04:31:54;14.80;98.20
4374;DHT22;2201;51.100;6.814;2023-05-07T04:34:21;14.90;98.20
4374;DHT22;2201;51.100;6.814;2023-05-07T04:36:51;14.90;98.20
4374;DHT22;2201;51.100;6.814;2023-05-07T04:39:20;15.00;98.20
4374;DHT22;2201;51.100;6.814;2023-05-07T04:41:47;15.00;98.20
4374;DHT22;2201;51.100;6.814;2023-05-07T04:44:15;15.00;98.20
4374;DHT22;2201;51.100;6.814;2023-05-07T04:46:42;15.00;98.20
4374;DHT22;2201;51.100;6.814;2023-05-07T04:49:11;15.00;98.20
4374;DHT22;2201;51.100;6.814;2023-05-07T04:51:38;15.00;98.20
4374;DHT22;2201;51.100;6.814;2023-05-07T04:54:08;15.00;98.20
4374;DHT22;2201;51.100;6.814;2023-05-07T04:56:34;15.00;98.20
4374;DHT22;2201;51.100;6.814;2023-05-07T04:59:01;15.10;98.20
4374;DHT22;2201;51.100;6.814;2023-05-07T05:01:28;15.10;98.20
4374;DHT22;2201;51.100;6.814;2023-05-07T05:03:55;15.10;98.20
4374;DHT22;2201;51.100;6.814;2023-05-07T05:06:23;15.10;98.20
4374;DHT22;2201;51.100;6.814;2023-05-07T05:08:50;15.20;98.20
4374;DHT22;2201;51.100;6.814;2023-05-07T05:11:17;15.20;98.20
4374;DHT22;2201;51.100;6.814;2023-05-07T05:13:43;15.30;98.20
4374;DHT22;2201;51.100;6.814;2023-05-07T05:16:12;15.30;98.20
4374;DHT22;2201;51.100;6.814;2023-05-07T05:18:39;15.30;98.20
4374;DHT22;2201;51.100;6.814;2023-05-07T05:21:06;15.30;98.20
4374;DHT22;2201;51.100;6.814;2023-05-07T05:23:34;15.30;98.20
4374;DHT22;2201;51.100;6.814;2023-05-07T05:26:01;15.30;98.20
4374;DHT22;2201;51.100;6.814;2023-05-07T05:28:28;15.40;98.20
4374;DHT22;2201;51.100;6.814;2023-05-07T05:30:55;15.40;98.20
4374;DHT22;2201;51.100;6.814;2023-05-07T05:33:22;15.40;98.20
4374;DHT22;2201;51.100;6.814;2023-05-07T05:35:53;15.50;98.20
4374;DHT22;2201;51.100;6.814;2023-05-07T05:38:21;15.50;98.20
4374;DHT22;2201;51.100;6.814;2023-05-07T05:40:49;15.50;98.20
4374;DHT22;2201;51.100;6.814;2023-05-07T05:43:16;15.60;98.20
4374;DHT22;2201;51.100;6.814;2023-05-07T05:45:42;15.60;98.20
4374;DHT22;2201;51.100;6.814;2023-05-07T05:48:09;15.60;98.20
4374;DHT22;2201;51.100;6.814;2023-05-07T05:50:36;15.70;98.20
4374;DHT22;2201;51.100;6.814;2023-05-07T05:53:03;15.70;98.20
4374;DHT22;2201;51.100;6.814;2023-05-07T05:55:30;15.70;98.20
4374;DHT22;2201;51.100;6.814;2023-05-07T05:57:59;15.80;98.20
4374;DHT22;2201;51.100;6.814;2023-05-07T06:00:26;15.90;98.20
4374;DHT22;2201;51.100;6.814;2023-05-07T06:02:52;15.90;98.20
4374;DHT22;2201;51.100;6.814;2023-05-07T06:05:19;16.00;98.20
4374;DHT22;2201;51.100;6.814;2023-05-07T06:07:46;16.10;98.20
4374;DHT22;2201;51.100;6.814;2023-05-07T06:10:13;16.10;98.20
4374;DHT22;2201;51.100;6.814;2023-05-07T06:12:40;16.10;98.20
4374;DHT22;2201;51.100;6.814;2023-05-07T06:15:09;16.20;98.20
4374;DHT22;2201;51.100;6.814;2023-05-07T06:17:35;16.30;98.20
4374;DHT22;2201;51.100;6.814;2023-05-07T06:20:03;16.30;98.20
4374;DHT22;2201;51.100;6.814;2023-05-07T06:22:30;16.40;98.20
4374;DHT22;2201;51.100;6.814;2023-05-07T06:24:57;16.40;98.20
4374;DHT22;2201;51.100;6.814;2023-05-07T06:27:24;16.50;98.20
4374;DHT22;2201;51.100;6.814;2023-05-07T06:29:51;16.60;98.20
4374;DHT22;2201;51.100;6.814;2023-05-07T06:32:19;16.70;98.20
4374;DHT22;2201;51.100;6.814;2023-05-07T06:34:46;16.80;98.20
4374;DHT22;2201;51.100;6.814;2023-05-07T06:37:13;16.90;98.20
4374;DHT22;2201;51.100;6.814;2023-05-07T06:39:40;17.00;98.20
4374;DHT22;2201;51.100;6.814;2023-05-07T06:42:06;17.20;98.20
4374;DHT22;2201;51.100;6.814;2023-05-07T06:44:33;17.30;98.20
4374;DHT22;2201;51.100;6.814;2023-05-07T06:47:00;17.40;98.20
4374;DHT22;2201;51.100;6.814;2023-05-07T06:49:28;17.50;98.20
4374;DHT22;2201;51.100;6.814;2023-05-07T06:51:55;17.60;98.20
4374;DHT22;2201;51.100;6.814;2023-05-07T06:54:22;17.70;98.20
4374;DHT22;2201;51.100;6.814;2023-05-07T06:56:49;17.80;98.20
4374;DHT22;2201;51.100;6.814;2023-05-07T06:59:16;17.80;98.20
4374;DHT22;2201;51.100;6.814;2023-05-07T07:01:43;17.90;98.20
4374;DHT22;2201;51.100;6.814;2023-05-07T07:04:10;17.90;98.20
4374;DHT22;2201;51.100;6.814;2023-05-07T07:06:38;18.00;98.20
4374;DHT22;2201;51.100;6.814;2023-05-07T07:09:04;18.20;98.20
4374;DHT22;2201;51.100;6.814;2023-05-07T07:11:31;18.40;98.20
4374;DHT22;2201;51.100;6.814;2023-05-07T07:13:58;18.50;98.20
4374;DHT22;2201;51.100;6.814;2023-05-07T07:16:25;18.60;98.20
4374;DHT22;2201;51.100;6.814;2023-05-07T07:18:52;18.70;98.20
4374;DHT22;2201;51.100;6.814;2023-05-07T07:21:18;18.70;98.20
4374;DHT22;2201;51.100;6.814;2023-05-07T07:23:47;18.70;98.20
4374;DHT22;2201;51.100;6.814;2023-05-07T07:26:13;18.90;98.20
4374;DHT22;2201;51.100;6.814;2023-05-07T07:28:43;19.00;98.20
4374;DHT22;2201;51.100;6.814;2023-05-07T07:31:10;19.20;98.20
4374;DHT22;2201;51.100;6.814;2023-05-07T07:33:37;19.30;98.20
4374;DHT22;2201;51.100;6.814;2023-05-07T07:36:05;19.40;98.20
4374;DHT22;2201;51.100;6.814;2023-05-07T07:38:32;19.60;98.20
4374;DHT22;2201;51.100;6.814;2023-05-07T07:41:01;19.80;98.20
4374;DHT22;2201;51.100;6.814;2023-05-07T07:43:28;20.00;98.20
4374;DHT22;2201;51.100;6.814;2023-05-07T07:45:55;20.20;98.20
4374;DHT22;2201;51.100;6.814;2023-05-07T07:48:21;20.40;98.20
4374;DHT22;2201;51.100;6.814;2023-05-07T07:50:49;20.50;98.20
4374;DHT22;2201;51.100;6.814;2023-05-07T07:53:16;20.60;98.20
4374;DHT22;2201;51.100;6.814;2023-05-07T07:55:43;20.60;98.20
4374;DHT22;2201;51.100;6.814;2023-05-07T07:58:11;20.70;98.20
4374;DHT22;2201;51.100;6.814;2023-05-07T08:00:38;20.80;98.20
4374;DHT22;2201;51.100;6.814;2023-05-07T08:03:05;20.80;98.20
4374;DHT22;2201;51.100;6.814;2023-05-07T08:05:32;20.90;98.20
4374;DHT22;2201;51.100;6.814;2023-05-07T08:07:59;21.00;98.20
4374;DHT22;2201;51.100;6.814;2023-05-07T08:10:26;21.00;98.20
4374;DHT22;2201;51.100;6.814;2023-05-07T08:12:53;21.20;98.20
4374;DHT22;2201;51.100;6.814;2023-05-07T08:15:22;21.50;98.20
4374;DHT22;2201;51.100;6.814;2023-05-07T08:17:48;21.60;98.20
4374;DHT22;2201;51.100;6.814;2023-05-07T08:20:15;21.80;98.00
4374;DHT22;2201;51.100;6.814;2023-05-07T08:22:42;22.00;97.10
4374;DHT22;2201;51.100;6.814;2023-05-07T08:25:09;22.10;94.90
4374;DHT22;2201;51.100;6.814;2023-05-07T08:27:36;22.10;95.40
4374;DHT22;2201;51.100;6.814;2023-05-07T08:30:05;22.10;96.60
4374;DHT22;2201;51.100;6.814;2023-05-07T08:32:33;22.10;96.60
4374;DHT22;2201;51.100;6.814;2023-05-07T08:35:00;22.20;94.20
4374;DHT22;2201;51.100;6.814;2023-05-07T08:37:26;22.20;95.40
4374;DHT22;2201;51.100;6.814;2023-05-07T08:39:53;22.30;95.20
4374;DHT22;2201;51.100;6.814;2023-05-07T08:42:20;22.40;95.30
4374;DHT22;2201;51.100;6.814;2023-05-07T08:44:51;22.50;95.50
4374;DHT22;2201;51.100;6.814;2023-05-07T08:47:21;22.70;95.90
4374;DHT22;2201;51.100;6.814;2023-05-07T08:49:50;22.90;93.50
4374;DHT22;2201;51.100;6.814;2023-05-07T08:52:17;23.00;92.60
4374;DHT22;2201;51.100;6.814;2023-05-07T08:54:45;23.40;93.70
4374;DHT22;2201;51.100;6.814;2023-05-07T08:57:13;23.50;92.10
4374;DHT22;2201;51.100;6.814;2023-05-07T08:59:40;23.80;92.40
4374;DHT22;2201;51.100;6.814;2023-05-07T09:02:09;24.00;91.20
4374;DHT22;2201;51.100;6.814;2023-05-07T09:04:36;24.10;91.00
4374;DHT22;2201;51.100;6.814;2023-05-07T09:07:05;24.20;89.50
4374;DHT22;2201;51.100;6.814;2023-05-07T09:09:32;24.20;89.50
4374;DHT22;2201;51.100;6.814;2023-05-07T09:11:59;24.20;90.30
4374;DHT22;2201;51.100;6.814;2023-05-07T09:14:27;24.10;89.60
4374;DHT22;2201;51.100;6.814;2023-05-07T09:16:54;24.10;89.20
4374;DHT22;2201;51.100;6.814;2023-05-07T09:19:22;24.10;89.90
4374;DHT22;2201;51.100;6.814;2023-05-07T09:21:50;24.10;88.60
4374;DHT22;2201;51.100;6.814;2023-05-07T09:24:25;24.10;89.50
4374;DHT22;2201;51.100;6.814;2023-05-07T09:26:52;24.30;88.90
4374;DHT22;2201;51.100;6.814;2023-05-07T09:29:19;24.50;90.40
4374;DHT22;2201;51.100;6.814;2023-05-07T09:31:46;24.80;88.90
4374;DHT22;2201;51.100;6.814;2023-05-07T09:34:13;24.90;87.40
4374;DHT22;2201;51.100;6.814;2023-05-07T09:36:40;24.90;86.50
4374;DHT22;2201;51.100;6.814;2023-05-07T09:39:07;24.90;86.40
4374;DHT22;2201;51.100;6.814;2023-05-07T09:41:43;25.30;87.70
4374;DHT22;2201;51.100;6.814;2023-05-07T09:44:10;25.80;85.60
4374;DHT22;2201;51.100;6.814;2023-05-07T09:46:38;26.00;83.80
4374;DHT22;2201;51.100;6.814;2023-05-07T09:49:07;26.10;84.10
4374;DHT22;2201;51.100;6.814;2023-05-07T09:51:41;26.50;82.70
4374;DHT22;2201;51.100;6.814;2023-05-07T09:54:10;26.90;84.20
4374;DHT22;2201;51.100;6.814;2023-05-07T09:56:39;27.10;80.70
4374;DHT22;2201;51.100;6.814;2023-05-07T09:59:08;27.00;80.60
4374;DHT22;2201;51.100;6.814;2023-05-07T10:01:36;26.90;80.20
4374;DHT22;2201;51.100;6.814;2023-05-07T10:04:04;26.70;80.80
4374;DHT22;2201;51.100;6.814;2023-05-07T10:06:34;26.60;79.60
4374;DHT22;2201;51.100;6.814;2023-05-07T10:09:02;26.40;79.40
4374;DHT22;2201;51.100;6.814;2023-05-07T10:11:32;26.20;79.70
4374;DHT22;2201;51.100;6.814;2023-05-07T10:14:01;26.20;81.70
4374;DHT22;2201;51.100;6.814;2023-05-07T10:16:29;26.10;80.10
4374;DHT22;2201;51.100;6.814;2023-05-07T10:18:58;26.00;79.10
4374;DHT22;2201;51.100;6.814;2023-05-07T10:21:27;26.10;81.40
4374;DHT22;2201;51.100;6.814;2023-05-07T10:23:58;26.40;81.40
4374;DHT22;2201;51.100;6.814;2023-05-07T10:26:27;26.60;77.50
4374;DHT22;2201;51.100;6.814;2023-05-07T10:28:59;27.00;79.90
4374;DHT22;2201;51.100;6.814;2023-05-07T10:31:46;27.50;77.50
4374;DHT22;2201;51.100;6.814;2023-05-07T10:34:19;27.80;72.80
4374;DHT22;2201;51.100;6.814;2023-05-07T10:36:48;27.90;71.10
4374;DHT22;2201;51.100;6.814;2023-05-07T10:39:16;28.00;73.30
4374;DHT22;2201;51.100;6.814;2023-05-07T10:41:43;28.10;73.10
4374;DHT22;2201;51.100;6.814;2023-05-07T10:44:10;28.20;74.00
4374;DHT22;2201;51.100;6.814;2023-05-07T10:46:38;28.20;73.90
4374;DHT22;2201;51.100;6.814;2023-05-07T10:49:09;28.10;73.10
4374;DHT22;2201;51.100;6.814;2023-05-07T10:51:38;28.00;74.00
4374;DHT22;2201;51.100;6.814;2023-05-07T10:54:21;28.00;72.70
4374;DHT22;2201;51.100;6.814;2023-05-07T10:56:49;27.90;73.70
4374;DHT22;2201;51.100;6.814;2023-05-07T10:59:36;27.80;73.60
4374;DHT22;2201;51.100;6.814;2023-05-07T11:02:09;27.80;73.50
4374;DHT22;2201;51.100;6.814;2023-05-07T11:04:37;27.80;73.90
4374;DHT22;2201;51.100;6.814;2023-05-07T11:07:28;27.90;75.20
4374;DHT22;2201;51.100;6.814;2023-05-07T11:10:04;28.20;75.70
4374;DHT22;2201;51.100;6.814;2023-05-07T11:12:51;28.30;72.40
4374;DHT22;2201;51.100;6.814;2023-05-07T11:15:40;27.80;72.70
4374;DHT22;2201;51.100;6.814;2023-05-07T11:18:11;27.70;74.60
4374;DHT22;2201;51.100;6.814;2023-05-07T11:20:52;27.60;74.20
4374;DHT22;2201;51.100;6.814;2023-05-07T11:23:58;27.30;71.90
4374;DHT22;2201;51.100;6.814;2023-05-07T11:26:25;27.10;73.30
4374;DHT22;2201;51.100;6.814;2023-05-07T11:28:53;26.90;73.90
4374;DHT22;2201;51.100;6.814;2023-05-07T11:31:21;27.00;73.90
4374;DHT22;2201;51.100;6.814;2023-05-07T11:33:51;27.20;74.10
4374;DHT22;2201;51.100;6.814;2023-05-07T11:36:18;27.20;73.00
4374;DHT22;2201;51.100;6.814;2023-05-07T11:38:57;27.10;73.00
4374;DHT22;2201;51.100;6.814;2023-05-07T11:41:33;27.10;71.10
4374;DHT22;2201;51.100;6.814;2023-05-07T11:44:00;27.10;74.10
4374;DHT22;2201;51.100;6.814;2023-05-07T11:46:28;27.10;74.00
4374;DHT22;2201;51.100;6.814;2023-05-07T11:48:56;27.00;73.20
4374;DHT22;2201;51.100;6.814;2023-05-07T11:51:24;26.80;73.30
4374;DHT22;2201;51.100;6.814;2023-05-07T11:53:52;26.60;73.70
4374;DHT22;2201;51.100;6.814;2023-05-07T11:56:19;26.70;76.60
4374;DHT22;2201;51.100;6.814;2023-05-07T11:58:47;26.60;74.60
4374;DHT22;2201;51.100;6.814;2023-05-07T12:01:15;26.60;75.70
4374;DHT22;2201;51.100;6.814;2023-05-07T12:03:44;26.80;76.90
4374;DHT22;2201;51.100;6.814;2023-05-07T12:06:15;26.90;75.60
4374;DHT22;2201;51.100;6.814;2023-05-07T12:08:42;27.00;76.40
4374;DHT22;2201;51.100;6.814;2023-05-07T12:11:13;27.10;75.90
4374;DHT22;2201;51.100;6.814;2023-05-07T12:13:41;27.30;75.40
4374;DHT22;2201;51.100;6.814;2023-05-07T12:16:08;27.50;75.50
4374;DHT22;2201;51.100;6.814;2023-05-07T12:18:36;27.50;74.50
4374;DHT22;2201;51.100;6.814;2023-05-07T12:21:04;27.50;74.90
4374;DHT22;2201;51.100;6.814;2023-05-07T12:23:34;27.60;75.30
4374;DHT22;2201;51.100;6.814;2023-05-07T12:26:01;27.60;74.80
4374;DHT22;2201;51.100;6.814;2023-05-07T12:28:28;27.60;75.70
4374;DHT22;2201;51.100;6.814;2023-05-07T12:30:57;27.50;76.20
4374;DHT22;2201;51.100;6.814;2023-05-07T12:33:25;27.30;75.10
4374;DHT22;2201;51.100;6.814;2023-05-07T12:35:54;27.10;76.70
4374;DHT22;2201;51.100;6.814;2023-05-07T12:38:22;27.00;76.20
4374;DHT22;2201;51.100;6.814;2023-05-07T12:40:53;26.80;76.20
4374;DHT22;2201;51.100;6.814;2023-05-07T12:43:21;26.50;77.00
4374;DHT22;2201;51.100;6.814;2023-05-07T12:45:49;26.40;77.30
4374;DHT22;2201;51.100;6.814;2023-05-07T12:48:17;26.20;77.40
4374;DHT22;2201;51.100;6.814;2023-05-07T12:50:44;25.90;77.50
4374;DHT22;2201;51.100;6.814;2023-05-07T12:53:11;25.70;78.80
4374;DHT22;2201;51.100;6.814;2023-05-07T12:55:42;25.70;80.00
4374;DHT22;2201;51.100;6.814;2023-05-07T12:58:16;25.70;79.20
4374;DHT22;2201;51.100;6.814;2023-05-07T13:00:44;25.60;77.40
4374;DHT22;2201;51.100;6.814;2023-05-07T13:03:11;25.60;78.20
4374;DHT22;2201;51.100;6.814;2023-05-07T13:05:39;25.60;79.00
4374;DHT22;2201;51.100;6.814;2023-05-07T13:08:06;25.60;78.50
4374;DHT22;2201;51.100;6.814;2023-05-07T13:10:35;25.60;77.90
4374;DHT22;2201;51.100;6.814;2023-05-07T13:13:02;25.60;79.20
4374;DHT22;2201;51.100;6.814;2023-05-07T13:15:31;25.50;79.00
4374;DHT22;2201;51.100;6.814;2023-05-07T13:17:58;25.50;79.50
4374;DHT22;2201;51.100;6.814;2023-05-07T13:20:25;25.50;79.50
4374;DHT22;2201;51.100;6.814;2023-05-07T13:22:52;25.50;78.90
4374;DHT22;2201;51.100;6.814;2023-05-07T13:25:19;25.50;78.40
4374;DHT22;2201;51.100;6.814;2023-05-07T13:27:46;25.40;78.40
4374;DHT22;2201;51.100;6.814;2023-05-07T13:30:13;25.40;78.70
4374;DHT22;2201;51.100;6.814;2023-05-07T13:32:41;25.40;78.00
4374;DHT22;2201;51.100;6.814;2023-05-07T13:35:08;25.30;78.40
4374;DHT22;2201;51.100;6.814;2023-05-07T13:37:35;25.30;79.40
4374;DHT22;2201;51.100;6.814;2023-05-07T13:40:02;25.30;78.30
4374;DHT22;2201;51.100;6.814;2023-05-07T13:42:30;25.20;79.40
4374;DHT22;2201;51.100;6.814;2023-05-07T13:44:57;25.20;80.40
4374;DHT22;2201;51.100;6.814;2023-05-07T13:47:24;25.00;80.80
4374;DHT22;2201;51.100;6.814;2023-05-07T13:49:52;24.90;81.00
4374;DHT22;2201;51.100;6.814;2023-05-07T13:52:19;24.80;81.60
4374;DHT22;2201;51.100;6.814;2023-05-07T13:54:46;24.70;81.80
4374;DHT22;2201;51.100;6.814;2023-05-07T13:57:13;24.60;83.30
4374;DHT22;2201;51.100;6.814;2023-05-07T13:59:40;24.50;84.90
4374;DHT22;2201;51.100;6.814;2023-05-07T14:02:07;24.40;86.90
4374;DHT22;2201;51.100;6.814;2023-05-07T14:04:34;24.10;87.70
4374;DHT22;2201;51.100;6.814;2023-05-07T14:07:02;23.90;88.20
4374;DHT22;2201;51.100;6.814;2023-05-07T14:09:29;23.80;88.60
4374;DHT22;2201;51.100;6.814;2023-05-07T14:11:56;23.50;90.80
4374;DHT22;2201;51.100;6.814;2023-05-07T14:14:23;23.40;92.10
4374;DHT22;2201;51.100;6.814;2023-05-07T14:16:49;23.00;92.20
4374;DHT22;2201;51.100;6.814;2023-05-07T14:19:16;22.80;93.40
4374;DHT22;2201;51.100;6.814;2023-05-07T14:21:43;22.60;95.00
4374;DHT22;2201;51.100;6.814;2023-05-07T14:24:11;22.40;96.60
4374;DHT22;2201;51.100;6.814;2023-05-07T14:26:38;22.30;96.50
4374;DHT22;2201;51.100;6.814;2023-05-07T14:29:05;22.20;97.40
4374;DHT22;2201;51.100;6.814;2023-05-07T14:31:31;22.20;97.90
4374;DHT22;2201;51.100;6.814;2023-05-07T14:33:59;22.20;98.20
4374;DHT22;2201;51.100;6.814;2023-05-07T14:36:26;22.20;98.20
4374;DHT22;2201;51.100;6.814;2023-05-07T14:38:53;22.10;98.20
4374;DHT22;2201;51.100;6.814;2023-05-07T14:41:22;21.90;98.20
4374;DHT22;2201;51.100;6.814;2023-05-07T14:43:48;21.80;98.20
4374;DHT22;2201;51.100;6.814;2023-05-07T14:46:16;21.70;98.20
4374;DHT22;2201;51.100;6.814;2023-05-07T14:48:44;21.50;98.20
4374;DHT22;2201;51.100;6.814;2023-05-07T14:51:11;21.40;98.20
4374;DHT22;2201;51.100;6.814;2023-05-07T14:53:38;21.30;98.20
4374;DHT22;2201;51.100;6.814;2023-05-07T14:56:05;21.20;98.20
4374;DHT22;2201;51.100;6.814;2023-05-07T14:58:34;21.10;98.20
4374;DHT22;2201;51.100;6.814;2023-05-07T15:01:01;21.10;98.20
4374;DHT22;2201;51.100;6.814;2023-05-07T15:03:29;21.10;98.20
4374;DHT22;2201;51.100;6.814;2023-05-07T15:05:56;21.10;98.20
4374;DHT22;2201;51.100;6.814;2023-05-07T15:08:23;21.00;98.20
4374;DHT22;2201;51.100;6.814;2023-05-07T15:10:51;21.00;98.20
4374;DHT22;2201;51.100;6.814;2023-05-07T15:13:18;21.10;98.20
4374;DHT22;2201;51.100;6.814;2023-05-07T15:15:47;21.10;98.20
4374;DHT22;2201;51.100;6.814;2023-05-07T15:18:15;21.10;98.20
4374;DHT22;2201;51.100;6.814;2023-05-07T15:20:43;21.00;98.20
4374;DHT22;2201;51.100;6.814;2023-05-07T15:23:10;20.90;98.20
4374;DHT22;2201;51.100;6.814;2023-05-07T15:25:39;20.80;98.20
4374;DHT22;2201;51.100;6.814;2023-05-07T15:28:07;20.90;98.20
4374;DHT22;2201;51.100;6.814;2023-05-07T15:30:34;20.90;98.20
4374;DHT22;2201;51.100;6.814;2023-05-07T15:33:03;20.90;98.20
4374;DHT22;2201;51.100;6.814;2023-05-07T15:35:30;20.80;98.20
4374;DHT22;2201;51.100;6.814;2023-05-07T15:37:57;20.80;98.20
4374;DHT22;2201;51.100;6.814;2023-05-07T15:40:25;20.80;98.20
4374;DHT22;2201;51.100;6.814;2023-05-07T15:42:55;20.80;98.20
4374;DHT22;2201;51.100;6.814;2023-05-07T15:45:23;20.70;98.20
4374;DHT22;2201;51.100;6.814;2023-05-07T15:47:50;20.70;98.20
4374;DHT22;2201;51.100;6.814;2023-05-07T15:50:19;20.80;98.20
4374;DHT22;2201;51.100;6.814;2023-05-07T15:52:46;20.80;98.20
4374;DHT22;2201;51.100;6.814;2023-05-07T15:55:13;20.90;98.20
4374;DHT22;2201;51.100;6.814;2023-05-07T15:57:41;21.00;98.20
4374;DHT22;2201;51.100;6.814;2023-05-07T16:00:09;21.10;98.20
4374;DHT22;2201;51.100;6.814;2023-05-07T16:02:37;21.10;98.20
4374;DHT22;2201;51.100;6.814;2023-05-07T16:05:06;21.20;98.20
4374;DHT22;2201;51.100;6.814;2023-05-07T16:07:36;21.20;98.20